Time;durP1;ratioP1;P1;durP2;ratioP2;P2;SDS_P1;SDS_P2;PMS_P1;PMS_P2;Temp;Humidity;BMP_temperature;BMP_pressure;BME280_temperature;BME280_humidity;BME280_pressure;Samples;Min_cycle;Max_cycle;Signal;HPM_P1;HPM_P2
2023/01/22 00:02:12;;;;;;;20.07;9.57;;;5.80;59.40;;;;;;5022553;28;20500;-88
2023/01/22 00:04:39;;;;;;;18.50;9.50;;;5.70;59.20;;;;;;5043958;28;20988;-88
2023/01/22 00:07:07;;;;;;;16.20;7.90;;;5.70;59.80;;;;;;5009579;28;20971;-89
2023/01/22 00:09:34;;;;;;;13.50;7.60;;;5.60;60.10;;;;;;5020387;28;20466;-88
2023/01/22 00:12:01;;;;;;;14.80;8.30;;;5.80;59.80;;;;;;5035312;28;20561;-88
2023/01/22 00:14:28;;;;;;;15.40;8.73;;;5.50;59.60;;;;;;5019073;28;20943;-89
2023/01/22 00:16:56;;;;;;;14.93;8.10;;;5.30;61.00;;;;;;5006923;28;20489;-88
2023/01/22 00:19:23;;;;;;;21.23;9.03;;;5.40;61.50;;;;;;5005435;28;20535;-88
2023/01/22 00:21:50;;;;;;;15.93;8.90;;;5.60;60.50;;;;;;5023300;28;20460;-88
2023/01/22 00:24:18;;;;;;;14.60;6.97;;;5.70;60.30;;;;;;5017559;28;20451;-88
2023/01/22 00:26:45;;;;;;;17.43;9.50;;;5.90;59.60;;;;;;5056649;28;20476;-88
2023/01/22 00:29:12;;;;;;;16.23;8.07;;;6.00;59.20;;;;;;5010018;28;20445;-88
2023/01/22 00:31:39;;;;;;;21.67;9.60;;;6.00;58.90;;;;;;5007604;28;20469;-87
2023/01/22 00:34:10;;;;;;;14.27;8.30;;;5.90;59.00;;;;;;5003824;28;20453;-89
2023/01/22 00:36:37;;;;;;;22.83;9.20;;;5.90;59.40;;;;;;5029797;28;20503;-89
2023/01/22 00:39:04;;;;;;;16.10;8.90;;;6.00;59.10;;;;;;5017761;28;20452;-88
2023/01/22 00:41:31;;;;;;;13.00;8.10;;;6.10;58.80;;;;;;5006949;28;20460;-89
2023/01/22 00:43:58;;;;;;;13.80;8.33;;;6.10;58.40;;;;;;5023344;28;22051;-88
2023/01/22 00:46:25;;;;;;;13.53;6.90;;;6.10;58.20;;;;;;5026462;28;20447;-88
2023/01/22 00:48:52;;;;;;;13.50;8.33;;;6.10;58.40;;;;;;5022499;28;20503;-88
2023/01/22 00:51:21;;;;;;;11.90;7.33;;;6.10;58.20;;;;;;5027048;28;20473;-87
2023/01/22 00:53:48;;;;;;;14.70;7.80;;;6.10;58.00;;;;;;5006356;28;20541;-88
2023/01/22 00:56:17;;;;;;;10.10;6.10;;;6.00;58.00;;;;;;5036043;28;20476;-86
2023/01/22 00:58:44;;;;;;;9.67;6.30;;;6.00;58.10;;;;;;5002328;28;20488;-88
2023/01/22 01:01:14;;;;;;;13.03;7.87;;;6.10;58.30;;;;;;5004653;28;20499;-88
2023/01/22 01:03:41;;;;;;;11.90;6.60;;;6.10;58.40;;;;;;5009223;28;20441;-88
2023/01/22 01:06:13;;;;;;;15.00;6.60;;;6.00;58.40;;;;;;5028103;28;20442;-89
2023/01/22 01:08:42;;;;;;;13.27;7.07;;;6.10;58.30;;;;;;5023987;28;20454;-86
2023/01/22 01:11:13;;;;;;;20.43;7.00;;;6.10;58.20;;;;;;5034190;28;20476;-88
2023/01/22 01:13:42;;;;;;;9.07;6.17;;;6.10;58.30;;;;;;5005109;28;20445;-87
2023/01/22 01:16:13;;;;;;;9.80;6.33;;;6.20;58.50;;;;;;5024107;28;20472;-88
2023/01/22 01:18:41;;;;;;;11.00;7.07;;;6.20;58.20;;;;;;5037541;28;20514;-88
2023/01/22 01:21:10;;;;;;;13.70;8.23;;;6.20;58.80;;;;;;5016514;28;20473;-88
2023/01/22 01:23:38;;;;;;;12.60;6.13;;;6.20;58.40;;;;;;5012224;28;20457;-89
2023/01/22 01:26:08;;;;;;;14.13;6.90;;;6.20;58.10;;;;;;5046698;28;20449;-88
2023/01/22 01:28:39;;;;;;;12.60;7.13;;;6.30;58.10;;;;;;5018910;28;20507;-89
2023/01/22 01:31:08;;;;;;;12.33;7.60;;;6.20;58.40;;;;;;5031842;28;21012;-88
2023/01/22 01:33:35;;;;;;;10.77;6.60;;;6.20;58.20;;;;;;5012571;28;21412;-88
2023/01/22 01:36:05;;;;;;;10.33;6.30;;;6.20;58.20;;;;;;5025227;28;20558;-88
2023/01/22 01:38:32;;;;;;;12.70;6.70;;;6.30;58.20;;;;;;5027851;28;20532;-88
2023/01/22 01:41:00;;;;;;;9.67;5.40;;;6.30;58.00;;;;;;5007910;28;20551;-89
2023/01/22 01:43:29;;;;;;;10.00;5.70;;;6.20;57.80;;;;;;5019682;28;20457;-88
2023/01/22 01:45:57;;;;;;;13.33;6.80;;;6.20;58.20;;;;;;5020143;28;20473;-89
2023/01/22 01:48:28;;;;;;;13.53;5.87;;;6.20;58.20;;;;;;5021471;28;20845;-87
2023/01/22 01:51:00;;;;;;;8.57;6.30;;;6.30;58.30;;;;;;5018853;28;21021;-89
2023/01/22 01:53:28;;;;;;;14.00;6.80;;;6.30;58.30;;;;;;5032199;28;20457;-89
2023/01/22 01:55:57;;;;;;;12.30;7.23;;;6.30;58.10;;;;;;5018137;28;20465;-88
2023/01/22 01:58:28;;;;;;;12.27;7.43;;;6.30;58.10;;;;;;5023959;28;20552;-86
2023/01/22 02:01:01;;;;;;;17.13;8.10;;;6.20;58.80;;;;;;5005979;28;20448;-88
2023/01/22 02:03:29;;;;;;;27.87;12.17;;;6.20;59.30;;;;;;5038208;28;20524;-88
2023/01/22 02:05:56;;;;;;;41.93;17.63;;;6.20;58.60;;;;;;5004670;28;20448;-88
2023/01/22 02:08:24;;;;;;;49.47;21.20;;;6.20;58.90;;;;;;5037952;28;20458;-88
2023/01/22 02:10:54;;;;;;;32.93;16.53;;;6.20;58.70;;;;;;5024805;28;20440;-89
2023/01/22 02:13:27;;;;;;;17.00;8.90;;;6.30;58.70;;;;;;5000824;28;20450;-88
2023/01/22 02:15:56;;;;;;;25.87;12.60;;;6.10;59.20;;;;;;5021600;28;20472;-88
2023/01/22 02:18:23;;;;;;;35.13;14.17;;;6.10;59.60;;;;;;5043842;28;20983;-89
2023/01/22 02:20:57;;;;;;;33.87;15.50;;;6.20;59.10;;;;;;5017231;28;20449;-88
2023/01/22 02:23:25;;;;;;;20.27;10.90;;;6.30;58.80;;;;;;5035750;28;20473;-88
2023/01/22 02:25:53;;;;;;;19.50;9.90;;;6.30;58.50;;;;;;5022449;28;20433;-88
2023/01/22 02:28:20;;;;;;;16.43;7.27;;;6.30;58.80;;;;;;5006859;28;20958;-86
2023/01/22 02:30:48;;;;;;;11.67;6.50;;;6.20;58.80;;;;;;5025250;28;20449;-89
2023/01/22 02:33:17;;;;;;;13.90;6.37;;;6.30;58.70;;;;;;5009331;28;20448;-88
2023/01/22 02:35:44;;;;;;;10.47;5.83;;;6.20;58.40;;;;;;5023953;28;20573;-88
2023/01/22 02:38:13;;;;;;;9.53;6.13;;;6.10;58.80;;;;;;5017263;28;20483;-88
2023/01/22 02:40:47;;;;;;;10.97;6.17;;;6.20;58.80;;;;;;5004854;28;20886;-86
2023/01/22 02:43:17;;;;;;;10.70;5.80;;;6.10;58.50;;;;;;5022069;28;20448;-88
2023/01/22 02:45:44;;;;;;;8.37;5.80;;;6.10;58.70;;;;;;5024167;28;20475;-88
2023/01/22 02:48:12;;;;;;;7.20;4.80;;;6.10;58.80;;;;;;5032344;28;20449;-88
2023/01/22 02:50:39;;;;;;;7.40;4.77;;;6.10;58.90;;;;;;5005103;28;20457;-88
2023/01/22 02:53:07;;;;;;;8.10;5.20;;;6.30;58.90;;;;;;5015468;28;20445;-88
2023/01/22 02:55:37;;;;;;;11.03;5.03;;;6.30;58.60;;;;;;5030305;28;21008;-89
2023/01/22 02:58:04;;;;;;;7.10;4.70;;;6.30;58.20;;;;;;5028284;28;20460;-88
2023/01/22 03:00:33;;;;;;;6.97;4.63;;;6.00;58.10;;;;;;5021006;28;20453;-88
2023/01/22 03:03:06;;;;;;;8.90;5.07;;;6.10;58.50;;;;;;5005853;28;21814;-88
2023/01/22 03:05:33;;;;;;;10.80;6.00;;;6.20;58.60;;;;;;5007734;28;20449;-88
2023/01/22 03:08:04;;;;;;;6.40;4.10;;;6.30;58.70;;;;;;5010506;28;20527;-88
2023/01/22 03:10:31;;;;;;;9.33;4.50;;;6.30;58.60;;;;;;5013967;28;20453;-88
2023/01/22 03:21:17;;;;;;;8.70;4.77;;;6.40;58.20;;;;;;5013560;28;20460;-88
2023/01/22 03:23:46;;;;;;;12.83;5.87;;;6.10;59.10;;;;;;5029021;28;20449;-88
2023/01/22 03:26:15;;;;;;;11.70;6.20;;;6.10;59.10;;;;;;5032197;28;20460;-89
2023/01/22 03:28:45;;;;;;;8.57;5.70;;;6.20;59.00;;;;;;5038117;28;20518;-88
2023/01/22 03:31:13;;;;;;;6.97;5.40;;;6.20;59.00;;;;;;5013812;28;20469;-88
2023/01/22 03:33:41;;;;;;;10.90;5.43;;;6.20;59.20;;;;;;5012457;28;20454;-89
2023/01/22 03:36:10;;;;;;;9.30;6.33;;;6.20;59.30;;;;;;5026379;28;20499;-88
2023/01/22 03:38:41;;;;;;;9.00;5.60;;;6.30;59.00;;;;;;5025187;28;20477;-88
2023/01/22 03:41:15;;;;;;;7.43;4.57;;;6.40;58.70;;;;;;5005809;28;20564;-87
2023/01/22 03:43:46;;;;;;;8.30;5.47;;;6.20;59.10;;;;;;5005782;28;20453;-88
2023/01/22 03:46:20;;;;;;;10.63;6.33;;;6.30;58.90;;;;;;5024621;28;20965;-88
2023/01/22 03:48:53;;;;;;;8.73;5.47;;;6.40;58.60;;;;;;5014495;28;20444;-89
2023/01/22 03:51:21;;;;;;;12.40;5.60;;;6.30;58.90;;;;;;5036191;28;20466;-88
2023/01/22 03:53:49;;;;;;;8.30;5.43;;;6.30;58.70;;;;;;5028765;28;20445;-88
2023/01/22 03:56:21;;;;;;;6.47;4.67;;;6.40;58.60;;;;;;5007741;28;20497;-88
2023/01/22 03:58:51;;;;;;;12.10;5.63;;;6.20;59.00;;;;;;5012081;28;20446;-89
2023/01/22 04:01:21;;;;;;;9.20;5.70;;;6.20;59.20;;;;;;5007130;28;20465;-87
2023/01/22 04:03:50;;;;;;;8.40;5.00;;;6.30;58.90;;;;;;5011028;28;20491;-88
2023/01/22 04:06:19;;;;;;;7.13;4.40;;;6.40;58.70;;;;;;5027303;28;20504;-88
2023/01/22 04:08:49;;;;;;;7.47;4.93;;;6.40;58.30;;;;;;5022922;28;20456;-88
2023/01/22 04:11:17;;;;;;;7.40;4.37;;;6.30;58.60;;;;;;5013610;28;20464;-87
2023/01/22 04:13:45;;;;;;;8.30;5.50;;;6.00;59.30;;;;;;5004061;28;21003;-88
2023/01/22 04:16:15;;;;;;;9.30;5.93;;;6.10;59.30;;;;;;5034732;28;20469;-88
2023/01/22 04:19:06;;;;;;;9.07;5.60;;;6.10;59.60;;;;;;5022173;28;20460;-88
2023/01/22 04:21:51;;;;;;;8.23;5.17;;;6.10;59.40;;;;;;5003412;28;20572;-87
2023/01/22 04:24:19;;;;;;;7.00;5.20;;;6.20;59.40;;;;;;5002892;28;20487;-88
2023/01/22 04:26:48;;;;;;;9.47;5.40;;;6.20;59.20;;;;;;5022720;28;20463;-89
2023/01/22 04:29:18;;;;;;;10.00;5.73;;;6.30;59.20;;;;;;5017965;28;20448;-88
2023/01/22 04:31:47;;;;;;;11.90;5.47;;;6.30;58.90;;;;;;5028245;28;20544;-88
2023/01/22 04:34:19;;;;;;;7.87;5.43;;;6.30;58.50;;;;;;5022515;28;20449;-88
2023/01/22 04:36:54;;;;;;;6.73;4.90;;;6.10;59.20;;;;;;5012697;28;20464;-88
2023/01/22 04:39:22;;;;;;;11.30;6.07;;;5.90;60.20;;;;;;5028794;28;20575;-88
2023/01/22 04:41:50;;;;;;;12.77;6.57;;;6.10;59.70;;;;;;5030037;28;20506;-89
2023/01/22 04:44:17;;;;;;;15.50;8.30;;;6.10;59.80;;;;;;5011316;28;20457;-88
2023/01/22 04:46:46;;;;;;;11.63;6.17;;;6.20;59.60;;;;;;5003027;28;21161;-87
2023/01/22 04:49:13;;;;;;;12.77;7.60;;;6.10;60.00;;;;;;5027694;28;20453;-86
2023/01/22 04:51:42;;;;;;;10.43;7.47;;;6.20;59.60;;;;;;5041510;28;20453;-87
2023/01/22 04:54:10;;;;;;;14.03;7.33;;;6.30;59.20;;;;;;5023534;28;20448;-88
2023/01/22 04:56:37;;;;;;;8.83;5.30;;;6.40;59.00;;;;;;5009638;28;20479;-89
2023/01/22 04:59:04;;;;;;;15.60;4.90;;;6.40;58.80;;;;;;5005782;28;21703;-88
2023/01/22 05:01:32;;;;;;;8.50;5.00;;;6.50;58.70;;;;;;5005932;28;20472;-88
2023/01/22 05:04:02;;;;;;;8.93;5.23;;;6.20;58.10;;;;;;5011565;28;20469;-88
2023/01/22 05:06:31;;;;;;;6.80;4.97;;;6.30;58.90;;;;;;5031154;28;20446;-89
2023/01/22 05:08:59;;;;;;;8.07;5.13;;;6.30;59.30;;;;;;5030304;28;20446;-87
2023/01/22 05:11:28;;;;;;;5.30;3.30;;;6.40;59.20;;;;;;5020650;28;20472;-88
2023/01/22 05:14:00;;;;;;;4.27;3.07;;;6.40;58.60;;;;;;5021322;28;20535;-87
2023/01/22 05:16:28;;;;;;;4.17;3.47;;;6.30;58.20;;;;;;5011882;28;20540;-86
2023/01/22 05:18:55;;;;;;;3.90;3.30;;;6.30;58.10;;;;;;5030949;28;20483;-87
2023/01/22 05:21:23;;;;;;;3.83;3.30;;;6.40;58.70;;;;;;5003991;28;20473;-88
2023/01/22 05:23:50;;;;;;;3.93;2.77;;;6.20;57.80;;;;;;4998693;28;20454;-88
2023/01/22 05:26:17;;;;;;;2.83;2.57;;;6.30;58.10;;;;;;5011985;28;20456;-88
2023/01/22 05:29:08;;;;;;;3.00;2.70;;;6.20;58.00;;;;;;5026954;28;20484;-88
2023/01/22 05:31:43;;;;;;;3.33;2.50;;;6.20;57.90;;;;;;5017777;28;20471;-87
2023/01/22 05:34:26;;;;;;;2.80;2.60;;;6.30;58.00;;;;;;5018099;28;20472;-86
2023/01/22 05:36:55;;;;;;;7.50;3.30;;;6.30;57.80;;;;;;5020472;28;20465;-89
2023/01/22 05:39:24;;;;;;;4.00;3.23;;;6.20;57.80;;;;;;5020744;28;20528;-88
2023/01/22 05:41:53;;;;;;;2.87;2.57;;;5.90;58.20;;;;;;5025698;28;20474;-88
2023/01/22 05:44:20;;;;;;;3.57;2.67;;;6.00;58.60;;;;;;5011180;28;20442;-88
2023/01/22 05:46:52;;;;;;;3.50;2.80;;;6.20;59.20;;;;;;5019862;28;20568;-88
2023/01/22 05:49:27;;;;;;;2.77;2.57;;;6.30;58.40;;;;;;5027900;28;20954;-86
2023/01/22 05:51:58;;;;;;;3.47;2.67;;;6.20;58.00;;;;;;5028883;28;20569;-88
2023/01/22 05:54:25;;;;;;;3.40;2.30;;;6.20;58.10;;;;;;5019312;28;20452;-88
2023/01/22 05:56:53;;;;;;;6.10;3.97;;;6.00;57.90;;;;;;5012142;28;20993;-87
2023/01/22 05:59:21;;;;;;;6.37;4.27;;;6.00;59.50;;;;;;5014932;28;20452;-88
2023/01/22 06:01:54;;;;;;;4.67;3.20;;;6.10;59.40;;;;;;5019707;28;20469;-88
2023/01/22 06:04:22;;;;;;;4.90;3.63;;;5.80;59.20;;;;;;5023997;28;20491;-87
2023/01/22 06:06:51;;;;;;;5.00;3.77;;;5.90;59.70;;;;;;5009289;28;20484;-87
2023/01/22 06:09:21;;;;;;;9.33;5.10;;;5.90;59.80;;;;;;4998914;28;20449;-87
2023/01/22 06:11:48;;;;;;;10.10;5.87;;;5.80;60.00;;;;;;5027094;28;20512;-87
2023/01/22 06:14:16;;;;;;;11.50;5.87;;;6.00;60.40;;;;;;5004932;28;20446;-88
2023/01/22 06:16:43;;;;;;;9.00;4.60;;;6.10;59.80;;;;;;5023594;28;20475;-88
2023/01/22 06:19:26;;;;;;;7.17;4.77;;;6.30;60.00;;;;;;5023075;28;20449;-88
2023/01/22 06:21:54;;;;;;;6.03;3.90;;;6.20;59.50;;;;;;5031497;28;20538;-88
2023/01/22 06:24:32;;;;;;;9.80;4.27;;;6.00;59.70;;;;;;5009558;28;20515;-87
2023/01/22 06:27:01;;;;;;;10.03;6.33;;;6.00;59.90;;;;;;5030816;28;20449;-87
2023/01/22 06:29:38;;;;;;;11.27;5.73;;;6.00;60.20;;;;;;5007773;28;20522;-87
2023/01/22 06:32:06;;;;;;;11.77;6.20;;;6.10;60.30;;;;;;5002179;28;21033;-88
2023/01/22 06:34:33;;;;;;;13.23;6.30;;;6.10;60.60;;;;;;5026378;28;20457;-87
2023/01/22 06:37:00;;;;;;;8.00;5.47;;;6.30;59.90;;;;;;5003648;28;20464;-86
2023/01/22 06:39:32;;;;;;;9.13;6.20;;;6.40;59.70;;;;;;5016117;28;20539;-88
2023/01/22 06:42:06;;;;;;;9.13;5.90;;;6.30;59.30;;;;;;5037786;28;20493;-88
2023/01/22 06:44:34;;;;;;;9.13;5.40;;;6.20;60.00;;;;;;5011709;28;20480;-87
2023/01/22 06:47:02;;;;;;;8.40;5.50;;;6.30;59.80;;;;;;5015223;28;20441;-88
2023/01/22 06:49:31;;;;;;;7.57;4.80;;;6.40;59.40;;;;;;5022118;28;20452;-88
2023/01/22 06:51:58;;;;;;;9.30;5.87;;;6.50;59.50;;;;;;4996387;28;20473;-87
2023/01/22 06:54:25;;;;;;;14.83;7.70;;;6.50;59.40;;;;;;5050282;28;20516;-88
2023/01/22 06:56:54;;;;;;;16.40;7.50;;;6.60;59.30;;;;;;5003211;28;20457;-86
2023/01/22 06:59:23;;;;;;;14.80;6.47;;;6.70;59.20;;;;;;5020753;28;20461;-88
2023/01/22 07:01:50;;;;;;;15.77;6.83;;;6.50;59.00;;;;;;5005352;28;20592;-88
2023/01/22 07:04:17;;;;;;;6.03;4.47;;;6.50;59.30;;;;;;5016331;28;20488;-88
2023/01/22 07:06:44;;;;;;;7.97;4.67;;;6.60;59.30;;;;;;5028841;28;20500;-88
2023/01/22 07:09:11;;;;;;;20.23;9.57;;;6.60;59.50;;;;;;5011805;28;20453;-87
2023/01/22 07:11:38;;;;;;;15.00;8.83;;;6.60;59.20;;;;;;5005507;28;20528;-87
2023/01/22 07:14:07;;;;;;;14.10;8.97;;;6.70;59.00;;;;;;5008517;28;20508;-87
2023/01/22 07:16:34;;;;;;;14.40;8.23;;;6.70;59.00;;;;;;5019621;28;20451;-86
2023/01/22 07:19:01;;;;;;;13.83;6.90;;;6.70;58.80;;;;;;5001768;28;20460;-89
2023/01/22 07:21:28;;;;;;;11.40;6.40;;;6.60;58.50;;;;;;5008875;28;20469;-88
2023/01/22 07:23:55;;;;;;;12.67;6.40;;;6.60;58.60;;;;;;5007384;28;20787;-88
2023/01/22 07:26:22;;;;;;;7.20;6.40;;;6.70;58.70;;;;;;5019293;28;20488;-87
2023/01/22 07:28:49;;;;;;;11.87;7.00;;;6.70;58.60;;;;;;5038276;28;20440;-85
2023/01/22 07:31:17;;;;;;;9.27;7.40;;;6.60;58.80;;;;;;5011307;28;20468;-87
2023/01/22 07:33:44;;;;;;;10.00;6.50;;;6.60;58.80;;;;;;5030375;28;20453;-88
2023/01/22 07:36:11;;;;;;;8.30;6.80;;;6.60;58.70;;;;;;5017944;28;20786;-87
2023/01/22 07:38:38;;;;;;;12.23;7.27;;;6.60;58.90;;;;;;5017219;28;20484;-86
2023/01/22 07:41:07;;;;;;;11.13;7.03;;;6.70;59.00;;;;;;5022793;28;21032;-87
2023/01/22 07:43:34;;;;;;;10.97;7.13;;;6.80;58.80;;;;;;5006960;28;20453;-88
2023/01/22 07:46:01;;;;;;;12.47;7.67;;;6.80;58.80;;;;;;5033511;28;20454;-87
2023/01/22 07:48:30;;;;;;;10.47;7.67;;;6.90;58.70;;;;;;5011578;28;21270;-87
2023/01/22 07:50:59;;;;;;;17.03;6.63;;;6.90;58.60;;;;;;5048535;28;20843;-89
2023/01/22 07:53:26;;;;;;;10.60;6.50;;;6.90;58.30;;;;;;5008321;28;20964;-88
2023/01/22 07:55:53;;;;;;;10.50;6.90;;;6.80;59.00;;;;;;5012688;28;20729;-86
2023/01/22 07:58:21;;;;;;;9.90;5.80;;;6.80;59.00;;;;;;5022960;28;20569;-88
2023/01/22 08:00:49;;;;;;;11.33;6.07;;;6.80;59.40;;;;;;5016943;28;20453;-88
2023/01/22 08:03:16;;;;;;;7.20;4.87;;;6.80;59.00;;;;;;5024082;28;20880;-88
2023/01/22 08:05:45;;;;;;;9.23;5.77;;;6.90;59.10;;;;;;5002948;28;20457;-88
2023/01/22 08:08:14;;;;;;;14.83;8.63;;;7.00;58.80;;;;;;5017063;28;20474;-88
2023/01/22 08:10:41;;;;;;;10.60;6.70;;;6.80;58.70;;;;;;4995330;28;20458;-88
2023/01/22 08:13:08;;;;;;;9.40;6.77;;;7.00;59.40;;;;;;5017139;28;20974;-88
2023/01/22 08:15:35;;;;;;;12.93;7.10;;;7.00;58.30;;;;;;5006691;28;20454;-89
2023/01/22 08:18:03;;;;;;;10.13;6.87;;;7.00;58.50;;;;;;5000143;28;20496;-88
2023/01/22 08:20:30;;;;;;;12.90;8.03;;;7.00;58.60;;;;;;5014848;28;20461;-87
2023/01/22 08:22:59;;;;;;;10.30;6.27;;;6.90;58.80;;;;;;5003442;28;20469;-88
2023/01/22 08:25:27;;;;;;;10.10;5.43;;;7.00;58.80;;;;;;5000643;28;20452;-88
2023/01/22 08:27:54;;;;;;;7.80;5.50;;;6.90;58.80;;;;;;5014397;28;20460;-88
2023/01/22 08:30:22;;;;;;;11.60;5.77;;;6.80;59.10;;;;;;5014966;28;20469;-88
2023/01/22 08:32:50;;;;;;;9.70;5.93;;;6.80;59.60;;;;;;5002216;28;20484;-88
2023/01/22 08:35:17;;;;;;;9.47;5.77;;;6.80;59.60;;;;;;5034937;28;20461;-84
2023/01/22 08:37:44;;;;;;;5.80;4.93;;;6.70;60.10;;;;;;5008983;28;20496;-89
2023/01/22 08:40:13;;;;;;;6.30;5.13;;;6.80;59.40;;;;;;5015258;28;20437;-87
2023/01/22 08:42:40;;;;;;;6.47;4.77;;;6.90;59.10;;;;;;5007137;28;20477;-90
2023/01/22 08:45:08;;;;;;;6.77;4.80;;;6.70;59.50;;;;;;5006033;28;20735;-89
2023/01/22 08:47:35;;;;;;;6.93;5.37;;;6.50;59.90;;;;;;5013756;28;20438;-87
2023/01/22 08:50:03;;;;;;;7.57;6.10;;;6.60;60.10;;;;;;5048476;28;21047;-88
2023/01/22 08:52:30;;;;;;;6.50;5.30;;;6.80;59.40;;;;;;5037802;28;20465;-87
2023/01/22 08:54:57;;;;;;;7.27;5.60;;;6.90;59.70;;;;;;5034833;28;20451;-88
2023/01/22 08:57:25;;;;;;;9.53;6.57;;;7.00;59.10;;;;;;5045131;28;20556;-87
2023/01/22 08:59:52;;;;;;;10.70;4.77;;;7.20;58.60;;;;;;5019716;28;20503;-85
2023/01/22 09:02:19;;;;;;;7.47;5.50;;;7.20;58.40;;;;;;5012012;28;20469;-86
2023/01/22 09:04:46;;;;;;;8.20;4.80;;;7.30;58.30;;;;;;5008312;28;20457;-87
2023/01/22 09:07:13;;;;;;;7.23;5.27;;;7.30;58.00;;;;;;5006998;28;20478;-88
2023/01/22 09:09:40;;;;;;;5.33;4.67;;;7.30;58.40;;;;;;5017718;28;20560;-87
2023/01/22 09:12:07;;;;;;;8.10;5.13;;;7.30;57.80;;;;;;5030909;28;20986;-89
2023/01/22 09:14:36;;;;;;;6.40;5.17;;;7.40;57.80;;;;;;5022554;28;20457;-89
2023/01/22 09:17:03;;;;;;;5.87;4.40;;;7.40;57.30;;;;;;4997825;28;20460;-86
2023/01/22 09:19:30;;;;;;;8.23;5.30;;;7.30;57.60;;;;;;5012654;28;20822;-87
2023/01/22 09:21:57;;;;;;;4.97;4.10;;;7.30;57.60;;;;;;5014910;28;20481;-86
2023/01/22 09:24:24;;;;;;;6.00;3.90;;;7.50;57.40;;;;;;5007620;28;20485;-88
2023/01/22 09:26:51;;;;;;;6.00;4.20;;;7.50;57.40;;;;;;5029138;28;20803;-85
2023/01/22 09:29:18;;;;;;;7.60;5.57;;;7.40;56.10;;;;;;5039748;28;20904;-90
2023/01/22 09:31:46;;;;;;;9.73;6.30;;;7.10;56.90;;;;;;4999766;28;20465;-87
2023/01/22 09:34:13;;;;;;;12.37;6.57;;;7.00;57.80;;;;;;5004231;28;20453;-86
2023/01/22 09:36:41;;;;;;;5.90;5.30;;;7.10;58.00;;;;;;5015712;28;20448;-86
2023/01/22 09:39:08;;;;;;;8.13;5.53;;;7.10;58.00;;;;;;5030900;28;20460;-86
2023/01/22 09:41:38;;;;;;;7.00;4.80;;;7.10;57.40;;;;;;5018386;28;20527;-85
2023/01/22 09:44:10;;;;;;;7.37;5.10;;;7.00;57.80;;;;;;5033920;28;20464;-85
2023/01/22 09:46:41;;;;;;;5.37;4.23;;;7.10;57.60;;;;;;5049729;28;20481;-86
2023/01/22 09:49:15;;;;;;;6.33;4.10;;;7.10;57.60;;;;;;5047889;28;20558;-85
2023/01/22 09:51:45;;;;;;;7.30;5.20;;;7.20;57.50;;;;;;5032120;28;20473;-85
2023/01/22 09:54:15;;;;;;;6.33;4.50;;;7.40;57.40;;;;;;5047854;28;20445;-86
2023/01/22 09:56:44;;;;;;;4.90;4.17;;;7.70;57.30;;;;;;5049678;28;20444;-87
2023/01/22 09:59:16;;;;;;;6.70;5.17;;;7.50;56.60;;;;;;5051323;28;20484;-87
2023/01/22 10:01:47;;;;;;;7.60;5.87;;;7.70;57.00;;;;;;5018901;28;20498;-87
2023/01/22 10:04:34;;;;;;;6.40;4.70;;;7.80;57.00;;;;;;5000874;28;20469;-87
2023/01/22 10:07:05;;;;;;;5.60;3.80;;;8.00;57.00;;;;;;5008125;28;20449;-86
2023/01/22 10:09:33;;;;;;;5.17;3.73;;;8.00;56.70;;;;;;5040700;28;20456;-84
2023/01/22 10:12:09;;;;;;;6.50;3.90;;;7.90;56.40;;;;;;5048558;28;20477;-86
2023/01/22 10:14:36;;;;;;;8.20;5.80;;;7.60;56.80;;;;;;5032058;28;20821;-86
2023/01/22 10:17:03;;;;;;;11.47;7.83;;;7.60;57.60;;;;;;5028195;28;20461;-86
2023/01/22 10:19:39;;;;;;;7.23;5.90;;;7.60;57.70;;;;;;5050174;28;20504;-86
2023/01/22 10:22:11;;;;;;;20.00;13.50;;;7.60;57.30;;;;;;5019716;28;20552;-85
2023/01/22 10:24:38;;;;;;;8.70;5.93;;;7.10;57.80;;;;;;5031970;28;20438;-83
2023/01/22 10:27:12;;;;;;;11.00;6.07;;;7.00;58.80;;;;;;5031915;28;20444;-85
2023/01/22 10:29:39;;;;;;;9.67;5.80;;;7.20;58.90;;;;;;5049561;28;20445;-84
2023/01/22 10:32:18;;;;;;;6.93;4.83;;;7.50;58.60;;;;;;5023345;28;20464;-85
2023/01/22 10:34:58;;;;;;;20.17;12.73;;;7.60;58.20;;;;;;5027040;28;20464;-85
2023/01/22 10:37:25;;;;;;;6.67;5.23;;;7.60;57.80;;;;;;5028362;28;20452;-84
2023/01/22 10:39:57;;;;;;;5.93;4.00;;;7.60;57.70;;;;;;5017037;28;21154;-84
2023/01/22 10:42:26;;;;;;;4.80;3.87;;;7.50;57.20;;;;;;5036827;28;20519;-85
2023/01/22 10:44:56;;;;;;;4.87;4.07;;;7.70;56.90;;;;;;5030734;28;20444;-86
2023/01/22 10:47:26;;;;;;;4.23;3.83;;;7.80;57.00;;;;;;5049319;28;20453;-86
2023/01/22 10:50:05;;;;;;;9.03;5.07;;;7.90;56.90;;;;;;5010245;28;20441;-85
2023/01/22 10:52:36;;;;;;;9.13;6.23;;;7.90;56.90;;;;;;5050343;28;20468;-85
2023/01/22 10:55:04;;;;;;;9.97;6.10;;;8.00;57.00;;;;;;5048440;28;20444;-86
2023/01/22 10:57:33;;;;;;;9.87;6.33;;;8.00;56.50;;;;;;5036540;28;20449;-85
2023/01/22 11:00:08;;;;;;;7.90;6.20;;;8.00;56.50;;;;;;5038367;28;21015;-88
2023/01/22 11:02:35;;;;;;;8.27;7.13;;;8.10;56.10;;;;;;5007025;28;20469;-85
2023/01/22 11:05:17;;;;;;;7.50;5.10;;;8.20;56.30;;;;;;5036259;28;20900;-85
2023/01/22 11:07:46;;;;;;;7.03;4.90;;;7.90;56.80;;;;;;5053591;28;20507;-85
2023/01/22 11:10:19;;;;;;;9.30;5.87;;;8.00;56.80;;;;;;5033773;28;20441;-87
2023/01/22 11:12:51;;;;;;;3.47;3.17;;;7.90;57.30;;;;;;5051712;28;20815;-85
2023/01/22 11:15:24;;;;;;;4.83;3.47;;;8.00;57.00;;;;;;5014150;28;20457;-85
2023/01/22 11:17:53;;;;;;;6.00;4.83;;;8.00;57.20;;;;;;5019200;28;20457;-86
2023/01/22 11:20:26;;;;;;;8.80;6.47;;;8.20;57.20;;;;;;5006897;28;20457;-85
2023/01/22 11:23:03;;;;;;;5.57;4.90;;;8.30;56.90;;;;;;5029257;28;20559;-85
2023/01/22 11:25:45;;;;;;;4.00;3.47;;;8.40;56.50;;;;;;5011998;28;20524;-86
2023/01/22 11:28:27;;;;;;;5.00;2.57;;;8.30;56.60;;;;;;5040620;28;21530;-87
2023/01/22 11:31:06;;;;;;;3.70;2.73;;;8.10;56.80;;;;;;5016798;28;20453;-87
2023/01/22 11:34:07;;;;;;;2.77;2.57;;;8.00;56.70;;;;;;5037138;28;20457;-85
2023/01/22 11:36:41;;;;;;;3.20;2.87;;;8.00;56.80;;;;;;5059712;28;20490;-86
2023/01/22 11:39:16;;;;;;;3.83;3.10;;;7.90;56.50;;;;;;5016047;28;20465;-87
2023/01/22 11:41:56;;;;;;;3.40;3.10;;;8.00;56.80;;;;;;5010477;28;20453;-87
2023/01/22 11:44:40;;;;;;;3.70;2.93;;;8.10;57.10;;;;;;5013653;28;20459;-84
2023/01/22 11:47:29;;;;;;;8.00;4.43;;;8.10;57.10;;;;;;5033098;28;20456;-86
2023/01/22 11:50:09;;;;;;;6.03;3.70;;;8.30;57.30;;;;;;5022540;28;20473;-86
2023/01/22 11:52:47;;;;;;;3.47;2.93;;;8.10;56.50;;;;;;5027157;28;20481;-86
2023/01/22 11:55:30;;;;;;;4.67;3.70;;;8.10;55.90;;;;;;5005237;28;20532;-86
2023/01/22 11:58:07;;;;;;;8.50;4.70;;;8.00;56.20;;;;;;5038176;28;20487;-85
2023/01/22 12:00:43;;;;;;;6.20;4.17;;;8.20;56.50;;;;;;5018686;28;21159;-85
2023/01/22 12:03:26;;;;;;;5.53;3.93;;;8.20;56.70;;;;;;5022216;28;20729;-86
2023/01/22 12:06:11;;;;;;;4.10;3.67;;;8.20;56.00;;;;;;5036220;28;21013;-86
2023/01/22 12:08:49;;;;;;;4.03;3.60;;;8.20;56.00;;;;;;5047186;28;20452;-84
2023/01/22 12:11:38;;;;;;;5.10;3.40;;;8.20;55.40;;;;;;5035411;28;20571;-85
2023/01/22 12:14:27;;;;;;;4.93;3.47;;;8.20;55.60;;;;;;5043376;28;20491;-86
2023/01/22 12:17:02;;;;;;;3.73;3.30;;;8.30;55.70;;;;;;5026258;28;20520;-88
2023/01/22 12:19:56;;;;;;;16.03;4.13;;;8.30;56.10;;;;;;5012662;28;21081;-87
2023/01/22 12:22:32;;;;;;;9.70;5.23;;;8.30;55.80;;;;;;5030703;28;20472;-86
2023/01/22 12:25:10;;;;;;;6.60;5.23;;;8.20;55.60;;;;;;5048308;28;20942;-87
2023/01/22 12:27:41;;;;;;;9.20;5.20;;;8.30;56.00;;;;;;5053838;28;20520;-88
2023/01/22 12:30:15;;;;;;;10.33;6.13;;;8.20;56.30;;;;;;5025011;28;21044;-86
2023/01/22 12:32:46;;;;;;;7.67;5.10;;;7.90;55.70;;;;;;5034687;28;20502;-86
2023/01/22 12:35:16;;;;;;;8.70;6.00;;;7.90;56.90;;;;;;5051644;28;20449;-87
2023/01/22 12:37:45;;;;;;;6.07;5.27;;;8.00;56.30;;;;;;5050644;28;20502;-84
2023/01/22 12:40:31;;;;;;;16.97;7.47;;;8.00;56.50;;;;;;5033710;28;20461;-87
2023/01/22 12:43:01;;;;;;;17.77;8.73;;;8.20;56.40;;;;;;5004228;28;20520;-85
2023/01/22 12:45:40;;;;;;;9.70;5.33;;;8.10;56.10;;;;;;5007610;28;20458;-86
2023/01/22 12:48:19;;;;;;;7.70;4.23;;;8.00;56.50;;;;;;5032873;28;20462;-87
2023/01/22 12:50:52;;;;;;;4.63;2.90;;;7.90;56.90;;;;;;5025179;28;20967;-88
2023/01/22 12:53:25;;;;;;;7.13;4.20;;;7.80;56.70;;;;;;5018376;28;20721;-86
2023/01/22 12:56:03;;;;;;;6.07;4.30;;;7.70;56.80;;;;;;5050399;28;20938;-87
2023/01/22 12:58:32;;;;;;;6.70;4.50;;;7.90;57.40;;;;;;5033153;28;20449;-86
2023/01/22 13:01:01;;;;;;;7.93;4.60;;;7.90;57.00;;;;;;5048583;28;20532;-86
2023/01/22 13:03:29;;;;;;;8.80;4.90;;;7.90;55.90;;;;;;5018318;28;20448;-87
2023/01/22 13:05:57;;;;;;;8.80;4.77;;;7.90;56.20;;;;;;5048756;28;20468;-85
2023/01/22 13:08:39;;;;;;;13.40;6.57;;;7.90;55.50;;;;;;5000131;28;20481;-86
2023/01/22 13:11:10;;;;;;;10.30;5.93;;;7.50;55.70;;;;;;5032260;28;20469;-87
2023/01/22 13:13:45;;;;;;;6.63;3.87;;;7.60;56.50;;;;;;5020018;28;20436;-87
2023/01/22 13:16:20;;;;;;;4.37;3.70;;;7.70;56.30;;;;;;5028532;28;20860;-88
2023/01/22 13:18:49;;;;;;;4.97;2.70;;;7.60;56.30;;;;;;5028237;28;20467;-86